Lane, Illinois
Current Conditions -  °F | °C
As of 4:54 AM on Sunday 23 Nov 2014 (Local Time) from KDEC Reporting Station
Overcast Overcast  
Wind Chill: 51°   Ceiling: 9500
Heat Index: 51°   Visibility: 10mi
Dew Point: 43°   Wind: 14mph
Humidity: 74%   Direction: 160°SSE
Pressure: 29.79"   Gusts: NA
Location:  40.12°N, 88.86°W
Report Text: KDEC 231054Z 16012KT 10SM OVC095 11/06 A2979 RMK AO2 RAE05 SLP087 P0000 T01060061
Loading
Personal Weather Stations






























Interactive Weather Map New forecast layout! Learn more

10-Day Weather Forecast

Advertisements
Track Severe Weather on mobile